Flight Track Log - Related Links

Times and Time Zones

All times are in EDT time to prevent confusion due to time zone crossing. See the SWA508 flight status page for this flight to view local times or setup timezone preferences in your user account.

Time Position Orientation Groundspeed Altitude Reporting Facility
EDT Latitude Longitude Course Direction KTS MPH feet Rate Location/Type
Wed 11:05:33 AM 40.5506 -80.3153 286° West 290 334 10,800  Level Cleveland Center
Wed 11:06:33 AM 40.5717 -80.4383 283° West 324 373 13,900 3,250 Climbing Cleveland Center
Wed 11:07:33 AM 40.5944 -80.5694 283° West 352 405 17,300 2,950 Climbing Cleveland Center
Wed 11:08:00 AM 40.6342 -80.9711 285° West  Level FlightAware Approximate
Wed 11:08:33 AM 40.6194 -80.7033 284° West 387 445 19,800  Level Cleveland Center
Wed 11:09:00 AM 40.6600 -81.0972 286° West  Level FlightAware Approximate
Wed 11:09:33 AM 40.6422 -80.8458 282° West 392 451 22,600  Level Cleveland Center
Wed 11:10:00 AM 40.6866 -81.2230 286° West  Level FlightAware Approximate
Wed 11:10:33 AM 40.6689 -80.9908 284° West 398 458 25,200  Level Cleveland Center
Wed 11:11:33 AM 40.6911 -81.1389 281° West 414 476 26,000 850 Climbing Cleveland Center
Wed 11:12:33 AM 40.7175 -81.2897 283° West 419 482 26,900 1,000 Climbing Cleveland Center
Wed 11:13:33 AM 40.7497 -81.4464 285° West 426 490 28,000 1,600 Climbing Cleveland Center
Wed 11:14:33 AM 40.7797 -81.6003 284° West 433 498 30,100 2,000 Climbing Cleveland Center
Wed 11:15:33 AM 40.8053 -81.7517 283° West 428 493 32,000 950 Climbing Cleveland Center
Wed 11:16:33 AM 40.8311 -81.8867 284° West 428 493 32,000  Level Cleveland Center
Wed 11:17:33 AM 40.8606 -82.0356 285° West 423 487 32,000  Level Cleveland Center
Wed 11:18:33 AM 40.8875 -82.1869 283° West 423 487 32,000  Level Cleveland Center
Wed 11:19:33 AM 40.9144 -82.3417 283° West 430 495 32,000  Level Cleveland Center
Wed 11:20:33 AM 40.9472 -82.5103 284° West 437 503 32,000  Level Cleveland Center
Wed 11:21:33 AM 40.9736 -82.6678 283° West 437 503 32,000  Level Cleveland Center
Wed 11:22:33 AM 41.0019 -82.8256 283° West 437 503 32,000  Level Cleveland Center
Wed 11:23:33 AM 41.0300 -82.9833 283° West 432 497 32,000  Level Cleveland Center
Wed 11:24:33 AM 41.0558 -83.1414 282° West 438 504 32,000  Level Cleveland Center
Wed 11:25:33 AM 41.0858 -83.2831 286° West 438 504 32,000  Level Cleveland Center
Wed 11:26:33 AM 41.1108 -83.4550 281° West 433 498 32,000  Level Cleveland Center
Wed 11:27:33 AM 41.1381 -83.6161 283° West 433 498 32,000  Level Cleveland Center
Wed 11:29:19 AM 41.1878 -83.8872 284° West 444 511 32,000  Level Chicago Center
Wed 11:30:21 AM 41.2136 -84.0475 282° West 445 512 32,000  Level Chicago Center
Wed 11:31:22 AM 41.2411 -84.2092 283° West 448 516 32,000 -390 Level Chicago Center
Wed 11:32:24 AM 41.2683 -84.3706 283° West 448 516 31,200 -823 Descending Chicago Center
Wed 11:33:26 AM 41.2942 -84.5344 282° West 453 521 30,300 -581 Descending Chicago Center
Wed 11:34:28 AM 41.3264 -84.7297 282° West 451 519 30,000 -145 Descending Chicago Center
Wed 11:35:30 AM 41.3519 -84.8942 282° West 453 521 30,000  Level Chicago Center
Wed 11:36:31 AM 41.3783 -85.0586 282° West 454 522 30,000 -1,073 Level Chicago Center
Wed 11:37:33 AM 41.4028 -85.2242 281° West 453 521 27,800 -2,274 Descending Chicago Center
Wed 11:38:35 AM 41.4281 -85.3894 282° West 451 519 25,300 -1,887 Descending Chicago Center
Wed 11:39:37 AM 41.4531 -85.5506 282° West 439 505 23,900 -1,790 Descending Chicago Center
Wed 11:40:39 AM 41.4711 -85.7056 279° West 419 482 21,600 -2,177 Descending Chicago Center
Wed 11:41:41 AM 41.4825 -85.8550 276° West 405 466 19,400 -2,129 Descending Chicago Center
Wed 11:42:43 AM 41.4925 -85.9983 275° West 390 449 17,200 -2,341 Descending Chicago Center
Wed 11:43:44 AM 41.5056 -86.1644 276° West 376 433 14,600 -2,341 Descending Chicago Center
Wed 11:44:46 AM 41.5158 -86.2978 276° West 364 419 12,400 -1,887 Descending Chicago Center
Wed 11:45:48 AM 41.5233 -86.4275 274° West 354 407 10,700 -1,161 Descending Chicago Center
Wed 11:46:50 AM 41.5211 -86.5531 269° West 342 394 10,000 -339 Descending Chicago Center
Wed 11:47:52 AM 41.5206 -86.6758 270° West 335 386 10,000  Level Chicago Center
Wed 11:48:54 AM 41.5200 -86.8017 270° West 332 382 10,000 -244 Level Chicago Center
Wed 11:49:55 AM 41.5175 -86.9069 268° West 289 333 9,500 -1,122 Descending Chicago Center
Wed 11:50:57 AM 41.5172 -87.0322 270° West 285 328 7,700 -1,597 Descending Chicago Center
Wed 11:51:59 AM 41.5272 -87.1364 277° West 295 339 6,200 -1,109 Descending Chicago Center
Wed 11:52:29 AM 41.5500 -87.1833 303° West 281 323 6,000 -143 Descending Chicago TRACON
Wed 11:53:23 AM 41.5667 -87.2833 283° West 275 316 6,000 -53 Level Chicago TRACON
Wed 11:54:23 AM 41.5833 -87.3833 283° West 278 320 5,900 -475 Descending Chicago TRACON
Wed 11:55:04 AM 41.6025 -87.4239 302° West 278 320 5,200 -874 Descending Chicago Center
Wed 11:56:06 AM 41.6250 -87.5150 288° West 271 312 4,400 -774 Descending Chicago Center
Wed 11:57:08 AM 41.6700 -87.5914 308° West 236 272 3,600 -878 Descending Chicago Center
Wed 11:58:09 AM 41.7086 -87.6464 313° West 215 247 2,600 -789 Descending Chicago Center
Wed 11:58:24 AM 41.7167 -87.6667 298° West 194 223 2,600 -320 Level Chicago TRACON
Wed 11:59:24 AM 41.7667 -87.6833 346° North 191 220 2,200 -500 Descending Chicago TRACON
Wed 12:00:24 PM 41.8167 -87.7000 346° North 147 169 1,600 -600 Descending Chicago TRACON
Wed 12:03:00 PM 41.7833 -87.7500 334° Northwest  Level FlightAware Approximate

Login

Don't have an account? Register now (free) for customized features, flight alerts, and more!